createdAt,value
2023-02-13T00:04:02.651Z,5.70
2023-02-13T00:08:24.559Z,5.70
2023-02-13T00:12:47.013Z,5.70
2023-02-13T00:17:09.264Z,5.60
2023-02-13T00:21:31.397Z,5.60
2023-02-13T00:25:53.160Z,5.60
2023-02-13T00:30:16.629Z,5.60
2023-02-13T00:34:38.566Z,5.60
2023-02-13T00:39:00.866Z,5.60
2023-02-13T00:43:22.876Z,5.60
2023-02-13T00:47:44.933Z,5.60
2023-02-13T00:52:07.123Z,5.60
2023-02-13T00:56:29.495Z,5.60
2023-02-13T01:00:54.076Z,5.50
2023-02-13T01:05:16.096Z,5.60
2023-02-13T01:09:37.917Z,5.60
2023-02-13T01:13:59.777Z,5.60
2023-02-13T01:18:22.086Z,5.60
2023-02-13T01:22:44.818Z,5.60
2023-02-13T01:27:07.054Z,5.60
2023-02-13T01:31:29.350Z,5.60
2023-02-13T01:35:52.417Z,5.60
2023-02-13T01:40:15.881Z,5.50
2023-02-13T01:44:59.953Z,5.40
2023-02-13T01:49:26.019Z,5.40
2023-02-13T01:54:00.452Z,5.40
2023-02-13T01:58:28.130Z,5.40
2023-02-13T02:03:14.340Z,5.30
2023-02-13T02:07:41.820Z,5.30
2023-02-13T02:12:36.073Z,5.20
2023-02-13T02:17:00.731Z,5.20
2023-02-13T02:22:03.019Z,5.30
2023-02-13T02:26:39.976Z,5.30
2023-02-13T02:31:39.872Z,5.30
2023-02-13T02:36:27.347Z,5.20
2023-02-13T02:41:11.518Z,5.20
2023-02-13T02:45:45.654Z,5.30
2023-02-13T02:50:42.114Z,5.20
2023-02-13T02:55:20.633Z,5.20
2023-02-13T03:00:08.235Z,5.20
2023-02-13T03:05:10.183Z,5.20
2023-02-13T03:10:00.185Z,5.20
2023-02-13T03:14:24.491Z,5.10
2023-02-13T03:19:10.995Z,5.10
2023-02-13T03:24:12.650Z,5.00
2023-02-13T03:29:04.370Z,5.00
2023-02-13T03:33:55.231Z,5.00
2023-02-13T03:38:47.931Z,5.00
2023-02-13T03:43:17.592Z,5.10
2023-02-13T03:47:41.472Z,5.00
2023-02-13T03:52:30.091Z,5.10
2023-02-13T03:57:12.072Z,5.00
2023-02-13T04:01:36.569Z,5.00
2023-02-13T04:06:13.229Z,5.10
2023-02-13T04:10:39.735Z,5.10
2023-02-13T04:15:38.714Z,5.10
2023-02-13T04:20:01.000Z,5.10
2023-02-13T04:24:23.418Z,5.10
2023-02-13T04:28:45.711Z,5.10
2023-02-13T04:33:07.751Z,5.10
2023-02-13T04:37:30.153Z,5.10
2023-02-13T04:41:52.144Z,5.10
2023-02-13T04:46:14.163Z,5.00
2023-02-13T04:50:36.400Z,5.00
2023-02-13T04:54:58.493Z,5.00
2023-02-13T04:59:20.599Z,5.00
2023-02-13T05:03:43.244Z,4.90
2023-02-13T05:08:07.674Z,4.90
2023-02-13T05:12:29.992Z,4.80
2023-02-13T05:16:52.516Z,4.80
2023-02-13T05:21:50.139Z,4.90
2023-02-13T05:26:12.300Z,4.90
2023-02-13T05:30:34.154Z,4.90
2023-02-13T05:35:01.083Z,4.90
2023-02-13T05:39:24.574Z,4.80
2023-02-13T05:43:46.655Z,4.80
2023-02-13T05:48:08.897Z,4.80
2023-02-13T05:52:30.896Z,4.80
2023-02-13T05:56:53.135Z,4.80
2023-02-13T06:01:15.136Z,4.80
2023-02-13T06:05:37.400Z,4.70
2023-02-13T06:09:59.880Z,4.50
2023-02-13T06:14:21.652Z,4.60
2023-02-13T06:18:44.070Z,4.60
2023-02-13T06:23:05.929Z,4.60
2023-02-13T06:27:28.322Z,4.60
2023-02-13T06:31:50.556Z,4.60
2023-02-13T06:36:12.662Z,4.60
2023-02-13T06:40:34.663Z,4.60
2023-02-13T06:44:56.902Z,4.60
2023-02-13T06:49:19.458Z,4.50
2023-02-13T06:53:41.673Z,4.50
2023-02-13T06:58:03.591Z,4.50
2023-02-13T07:02:25.458Z,4.50
2023-02-13T07:06:50.745Z,4.50
2023-02-13T07:11:20.560Z,4.50
2023-02-13T07:15:43.244Z,4.50
2023-02-13T07:20:07.015Z,4.50
2023-02-13T07:24:29.303Z,4.50
2023-02-13T07:29:05.651Z,4.50
2023-02-13T07:33:36.245Z,4.60
2023-02-13T07:37:59.518Z,4.70
2023-02-13T07:42:23.314Z,4.80
2023-02-13T07:46:45.514Z,4.80
2023-02-13T07:51:07.710Z,4.90
2023-02-13T07:55:31.022Z,5.10
2023-02-13T07:59:53.245Z,5.30
2023-02-13T08:04:15.876Z,5.60
2023-02-13T08:08:39.086Z,6.40
2023-02-13T08:13:01.557Z,6.80
2023-02-13T08:17:23.479Z,7.10
2023-02-13T08:21:46.190Z,7.70
2023-02-13T08:26:08.339Z,8.70
2023-02-13T08:30:30.485Z,9.10
2023-02-13T08:34:52.730Z,8.90
2023-02-13T08:39:15.940Z,8.60
2023-02-13T08:43:38.392Z,8.40
2023-02-13T08:48:01.172Z,8.30
2023-02-13T08:52:23.051Z,8.50
2023-02-13T08:56:46.207Z,8.80
2023-02-13T09:01:09.931Z,8.90
2023-02-13T09:05:32.852Z,9.00
2023-02-13T09:09:55.314Z,8.70
2023-02-13T09:14:17.212Z,8.40
2023-02-13T09:18:43.116Z,7.90
2023-02-13T09:23:05.297Z,7.70
2023-02-13T09:27:27.860Z,7.80
2023-02-13T09:31:50.054Z,8.00
2023-02-13T09:36:19.351Z,8.60
2023-02-13T09:40:56.855Z,9.30
2023-02-13T09:45:22.056Z,9.80
2023-02-13T09:49:54.141Z,9.80
2023-02-13T09:54:20.997Z,9.90
2023-02-13T09:58:55.618Z,10.70
2023-02-13T10:03:41.930Z,10.60
2023-02-13T10:08:46.317Z,10.10
2023-02-13T10:13:31.534Z,8.70
2023-02-13T10:18:41.441Z,8.30
2023-02-13T10:23:28.100Z,8.70
2023-02-13T10:28:15.866Z,8.90
2023-02-13T10:33:20.029Z,9.10
2023-02-13T10:37:42.634Z,9.00
2023-02-13T10:42:26.257Z,9.10
2023-02-13T10:47:15.319Z,9.40
2023-02-13T10:52:04.862Z,10.00
2023-02-13T10:56:54.132Z,10.40
2023-02-13T11:01:31.411Z,10.10
2023-02-13T11:05:56.854Z,10.20
2023-02-13T11:10:27.364Z,10.50
2023-02-13T11:15:06.461Z,10.50
2023-02-13T11:19:53.697Z,9.80
2023-02-13T11:24:24.773Z,10.00
2023-02-13T11:29:04.489Z,10.30
2023-02-13T11:33:31.112Z,11.20
2023-02-13T11:38:20.631Z,11.10
2023-02-13T11:42:44.073Z,10.70
2023-02-13T11:47:06.870Z,10.30
2023-02-13T11:51:45.184Z,11.30
2023-02-13T11:56:15.410Z,11.90
2023-02-13T12:00:41.674Z,13.80
2023-02-13T12:05:27.519Z,14.80
2023-02-13T12:10:15.315Z,15.80
2023-02-13T12:14:46.156Z,15.60
2023-02-13T12:19:19.976Z,15.80
2023-02-13T12:23:44.837Z,17.00
2023-02-13T12:28:17.450Z,18.10
2023-02-13T12:33:04.885Z,18.40
2023-02-13T12:38:00.111Z,17.70
2023-02-13T12:42:49.383Z,16.20
2023-02-13T12:47:35.525Z,14.10
2023-02-13T12:52:48.436Z,12.10
2023-02-13T12:57:26.153Z,10.60
2023-02-13T13:02:00.694Z,9.90
2023-02-13T13:07:07.954Z,9.60
2023-02-13T13:12:04.978Z,9.70
2023-02-13T13:17:09.036Z,9.90
2023-02-13T13:21:54.132Z,10.00
2023-02-13T13:26:25.229Z,9.90
2023-02-13T13:30:48.207Z,9.80
2023-02-13T13:35:16.374Z,9.50
2023-02-13T13:40:01.758Z,9.40
2023-02-13T13:44:57.996Z,9.00
2023-02-13T13:49:58.739Z,8.70
2023-02-13T13:54:25.322Z,8.90
2023-02-13T13:58:49.795Z,8.90
2023-02-13T14:03:36.589Z,8.40
2023-02-13T14:08:25.032Z,8.20
2023-02-13T14:12:56.477Z,8.00
2023-02-13T14:17:44.738Z,7.80
2023-02-13T14:22:28.253Z,7.80
2023-02-13T14:27:05.270Z,7.90
2023-02-13T14:32:02.925Z,7.80
2023-02-13T14:36:49.059Z,7.90
2023-02-13T14:41:54.287Z,7.90
2023-02-13T14:46:36.351Z,7.80
2023-02-13T14:51:00.412Z,7.40
2023-02-13T14:55:38.480Z,7.10
2023-02-13T15:00:12.915Z,7.00
2023-02-13T15:04:46.667Z,6.90
2023-02-13T15:09:39.193Z,6.90
2023-02-13T15:14:22.590Z,6.70
2023-02-13T15:18:53.171Z,6.60
2023-02-13T15:23:26.758Z,6.50
2023-02-13T15:27:58.797Z,6.50
2023-02-13T15:32:33.582Z,6.40
2023-02-13T15:36:56.591Z,6.30
2023-02-13T15:41:28.191Z,6.20
2023-02-13T15:45:50.513Z,6.10
2023-02-13T15:50:36.202Z,6.00
2023-02-13T15:54:58.983Z,5.80
2023-02-13T15:59:22.092Z,5.80
2023-02-13T16:03:48.172Z,5.70
2023-02-13T16:08:25.451Z,5.70
2023-02-13T16:12:49.109Z,5.70
2023-02-13T16:17:29.351Z,5.60
2023-02-13T16:21:53.230Z,5.50
2023-02-13T16:26:17.166Z,5.40
2023-02-13T16:30:46.122Z,5.40
2023-02-13T16:35:32.892Z,5.30
2023-02-13T16:39:54.834Z,5.30
2023-02-13T16:44:29.435Z,5.20
2023-02-13T16:48:57.535Z,5.30
2023-02-13T16:53:20.390Z,5.30
2023-02-13T16:57:44.497Z,5.30
2023-02-13T17:02:33.355Z,5.30
2023-02-13T17:06:56.306Z,5.30
2023-02-13T17:11:19.682Z,5.40
2023-02-13T17:15:48.820Z,5.40
2023-02-13T17:20:18.115Z,5.40
2023-02-13T17:24:40.178Z,5.40
2023-02-13T17:29:02.495Z,5.40
2023-02-13T17:33:28.266Z,5.40
2023-02-13T17:37:50.539Z,5.40
2023-02-13T17:42:28.845Z,5.30
2023-02-13T17:46:50.956Z,5.30
2023-02-13T17:51:16.293Z,5.40
2023-02-13T17:55:38.562Z,5.40
2023-02-13T18:00:04.718Z,5.40
2023-02-13T18:04:34.111Z,5.40
2023-02-13T18:08:56.153Z,5.40
2023-02-13T18:13:18.129Z,5.40
2023-02-13T18:17:41.091Z,5.30
2023-02-13T18:22:05.071Z,5.30
2023-02-13T18:26:27.329Z,5.30
2023-02-13T18:30:49.458Z,5.30
2023-02-13T18:35:13.357Z,5.30
2023-02-13T18:39:35.414Z,5.30
2023-02-13T18:43:58.444Z,5.30
2023-02-13T18:48:21.071Z,5.20
2023-02-13T18:52:46.910Z,5.20
2023-02-13T18:57:09.103Z,5.10
2023-02-13T19:01:31.307Z,5.10
2023-02-13T19:05:53.552Z,5.10
2023-02-13T19:10:16.074Z,5.10
2023-02-13T19:14:39.940Z,5.10
2023-02-13T19:19:07.728Z,5.10
2023-02-13T19:23:30.243Z,5.10
2023-02-13T19:27:55.110Z,5.10
2023-02-13T19:32:17.740Z,5.10
2023-02-13T19:36:40.133Z,5.10
2023-02-13T19:41:13.034Z,5.10
2023-02-13T19:45:35.488Z,5.10
2023-02-13T19:49:57.376Z,5.00
2023-02-13T19:54:19.436Z,5.00
2023-02-13T19:58:43.335Z,4.90
2023-02-13T20:03:05.445Z,4.90
2023-02-13T20:07:27.881Z,4.90
2023-02-13T20:11:52.775Z,4.90
2023-02-13T20:16:17.294Z,4.90
2023-02-13T20:20:40.506Z,4.90
2023-02-13T20:25:03.235Z,4.80
2023-02-13T20:29:26.053Z,4.80
2023-02-13T20:33:50.590Z,4.80
2023-02-13T20:38:13.754Z,4.80
2023-02-13T20:42:37.150Z,4.80
2023-02-13T20:47:00.257Z,4.80
2023-02-13T20:51:23.775Z,4.80
2023-02-13T20:55:46.019Z,4.70
2023-02-13T21:00:13.176Z,4.60
2023-02-13T21:04:35.462Z,4.60
2023-02-13T21:08:58.532Z,4.60
2023-02-13T21:13:20.947Z,4.60
2023-02-13T21:17:43.276Z,4.60
2023-02-13T21:22:12.390Z,4.60
2023-02-13T21:26:34.893Z,4.60
2023-02-13T21:30:57.736Z,4.60
2023-02-13T21:35:19.909Z,4.60
2023-02-13T21:39:42.381Z,4.60
2023-02-13T21:44:04.838Z,4.60
2023-02-13T21:48:27.617Z,4.60
2023-02-13T21:52:52.672Z,4.60
2023-02-13T21:57:14.878Z,4.60
2023-02-13T22:01:38.239Z,4.60
2023-02-13T22:06:01.040Z,4.60
2023-02-13T22:10:23.522Z,4.60
2023-02-13T22:14:45.684Z,4.60
2023-02-13T22:19:08.522Z,4.60
2023-02-13T22:23:31.022Z,4.60
2023-02-13T22:27:56.323Z,4.60
2023-02-13T22:32:19.004Z,4.60
2023-02-13T22:36:43.035Z,4.60
2023-02-13T22:41:14.484Z,4.60
2023-02-13T22:45:40.269Z,4.60
2023-02-13T22:50:02.430Z,4.60
2023-02-13T22:54:24.794Z,4.60
2023-02-13T22:58:46.770Z,4.60
2023-02-13T23:03:08.784Z,4.60
2023-02-13T23:07:31.243Z,4.50
2023-02-13T23:12:12.123Z,4.50
2023-02-13T23:16:54.157Z,4.40
2023-02-13T23:21:16.049Z,4.40
2023-02-13T23:25:39.591Z,4.30
2023-02-13T23:30:01.796Z,4.20
2023-02-13T23:34:24.279Z,4.10
2023-02-13T23:38:46.789Z,4.00
2023-02-13T23:43:09.092Z,4.00
2023-02-13T23:47:30.987Z,4.00
2023-02-13T23:51:53.247Z,3.90
2023-02-13T23:56:15.313Z,3.90
